Time;durP1;ratioP1;P1;durP2;ratioP2;P2;SDS_P1;SDS_P2;PMS_P1;PMS_P2;Temp;Humidity;BMP_temperature;BMP_pressure;BME280_temperature;BME280_humidity;BME280_pressure;Samples;Min_cycle;Max_cycle;Signal;HPM_P1;HPM_P2
2021/06/17 00:00:10;;;;;;;4.20;2.92;;;22.00;75.90;;;;;;5035757;28;20072;-76
2021/06/17 00:02:36;;;;;;;3.97;2.80;;;;;;;;;;5030711;28;20048;-75
2021/06/17 00:05:06;;;;;;;4.18;2.90;;;22.10;76.00;;;;;;5032424;28;20044;-75
2021/06/17 00:07:32;;;;;;;4.32;2.60;;;21.90;77.20;;;;;;5038821;28;20025;-76
2021/06/17 00:09:58;;;;;;;6.45;3.33;;;;;;;;;;5054553;28;20458;-76
2021/06/17 00:12:24;;;;;;;5.60;2.90;;;;;;;;;;5052087;28;20109;-75
2021/06/17 00:14:50;;;;;;;6.07;2.85;;;;;;;;;;5041354;28;20059;-76
2021/06/17 00:17:17;;;;;;;4.78;3.15;;;22.00;75.80;;;;;;5043745;28;20487;-75
2021/06/17 00:19:43;;;;;;;3.40;2.60;;;21.80;78.60;;;;;;5034567;28;20052;-76
2021/06/17 00:22:09;;;;;;;4.03;2.65;;;;;;;;;;5040414;28;20056;-76
2021/06/17 00:24:35;;;;;;;4.45;2.80;;;;;;;;;;5034105;28;20109;-75
2021/06/17 00:27:01;;;;;;;5.40;2.83;;;;;;;;;;5053599;28;20104;-76
2021/06/17 00:29:27;;;;;;;5.55;3.03;;;;;;;;;;5033611;28;20566;-74
2021/06/17 00:31:53;;;;;;;3.53;2.50;;;22.00;76.70;;;;;;5033183;28;20403;-77
2021/06/17 00:34:18;;;;;;;8.40;3.10;;;21.70;80.10;;;;;;5037596;28;20056;-76
2021/06/17 00:36:44;;;;;;;7.68;2.97;;;21.80;78.90;;;;;;5036452;28;20124;-75
2021/06/17 00:39:10;;;;;;;4.55;2.80;;;21.80;77.10;;;;;;5034125;28;20400;-75
2021/06/17 00:41:40;;;;;;;6.88;3.05;;;21.80;77.30;;;;;;5036895;28;20032;-76
2021/06/17 00:44:06;;;;;;;4.22;3.00;;;21.80;77.30;;;;;;5033026;28;20480;-76
2021/06/17 00:46:31;;;;;;;5.28;3.60;;;21.70;78.20;;;;;;5033633;28;20037;-76
2021/06/17 00:48:57;;;;;;;4.72;3.45;;;21.70;78.60;;;;;;5035902;28;20052;-76
2021/06/17 00:51:23;;;;;;;5.70;3.40;;;21.70;78.80;;;;;;5033325;28;20308;-76
2021/06/17 00:53:48;;;;;;;4.60;2.92;;;21.60;79.00;;;;;;5034529;28;20036;-76
2021/06/17 00:56:14;;;;;;;6.00;3.13;;;21.50;78.90;;;;;;5032952;28;20029;-76
2021/06/17 00:58:39;;;;;;;5.43;3.03;;;21.50;78.90;;;;;;5028932;28;20025;-76
2021/06/17 01:01:05;;;;;;;4.38;3.50;;;22.00;79.80;;;;;;5037339;28;20597;-75
2021/06/17 01:03:31;;;;;;;4.50;3.10;;;21.60;79.80;;;;;;5052512;28;20029;-75
2021/06/17 01:05:57;;;;;;;4.93;3.47;;;21.50;79.80;;;;;;5038749;28;20054;-76
2021/06/17 01:08:47;;;;;;;5.65;3.25;;;21.60;80.50;;;;;;5039045;28;20097;-76
2021/06/17 01:11:42;;;;;;;5.82;3.33;;;21.50;80.70;;;;;;5051235;28;20029;-76
2021/06/17 01:14:18;;;;;;;4.15;3.17;;;21.50;80.90;;;;;;5040786;28;20037;-75
2021/06/17 01:16:48;;;;;;;6.32;3.10;;;21.40;81.30;;;;;;5039881;28;20017;-76
2021/06/17 01:19:36;;;;;;;5.53;3.40;;;21.40;81.40;;;;;;5034213;28;20407;-77
2021/06/17 01:22:08;;;;;;;4.35;3.22;;;22.20;81.90;;;;;;4995889;28;20550;-75
2021/06/17 01:24:40;;;;;;;4.72;3.28;;;21.40;82.00;;;;;;5037458;28;20032;-75
2021/06/17 01:27:17;;;;;;;5.03;3.60;;;21.40;82.50;;;;;;5033460;28;20033;-76
2021/06/17 01:29:48;;;;;;;6.97;3.53;;;21.30;83.10;;;;;;5034735;28;20028;-76
2021/06/17 01:32:18;;;;;;;6.25;3.78;;;21.20;83.10;;;;;;5052566;28;20068;-75
2021/06/17 01:34:47;;;;;;;6.43;3.45;;;21.20;83.60;;;;;;5043060;28;20391;-75
2021/06/17 01:37:16;;;;;;;5.95;3.78;;;21.20;84.10;;;;;;5035551;28;20041;-76
2021/06/17 01:39:43;;;;;;;5.57;3.80;;;21.20;84.00;;;;;;5034765;28;20167;-76
2021/06/17 01:42:10;;;;;;;7.15;3.67;;;21.20;84.30;;;;;;5033193;28;20107;-76
2021/06/17 01:44:37;;;;;;;4.97;3.88;;;21.20;84.10;;;;;;5031066;28;20026;-76
2021/06/17 01:47:05;;;;;;;4.85;3.17;;;21.20;84.50;;;;;;5036875;28;20036;-76
2021/06/17 01:49:34;;;;;;;4.82;3.50;;;21.20;84.80;;;;;;5042425;28;20025;-76
2021/06/17 01:52:01;;;;;;;5.10;3.38;;;21.20;84.40;;;;;;5034687;28;20033;-76
2021/06/17 01:54:28;;;;;;;4.95;3.78;;;21.60;85.00;;;;;;5031443;28;20050;-75
2021/06/17 01:56:57;;;;;;;5.18;3.67;;;21.70;84.70;;;;;;5033886;28;20373;-75
2021/06/17 01:59:24;;;;;;;6.07;3.50;;;21.30;84.50;;;;;;5039123;28;20058;-76
2021/06/17 02:01:55;;;;;;;4.78;3.45;;;21.10;84.60;;;;;;5030386;28;20522;-76
2021/06/17 02:04:22;;;;;;;4.63;3.50;;;21.50;85.20;;;;;;5031740;28;20035;-75
2021/06/17 02:06:48;;;;;;;4.78;3.47;;;21.10;85.20;;;;;;5035118;28;20032;-76
2021/06/17 02:09:15;;;;;;;5.05;3.60;;;21.10;85.50;;;;;;5034003;28;20018;-76
2021/06/17 02:11:41;;;;;;;6.85;3.90;;;21.10;86.10;;;;;;5037297;28;20088;-75
2021/06/17 02:14:10;;;;;;;4.28;3.22;;;21.00;86.30;;;;;;5034088;28;20159;-74
2021/06/17 02:16:40;;;;;;;6.87;3.67;;;19.40;85.90;;;;;;5030992;28;20029;-76
2021/06/17 02:19:08;;;;;;;5.13;3.30;;;21.00;86.90;;;;;;5035973;28;20395;-75
2021/06/17 02:21:37;;;;;;;7.18;3.58;;;21.00;87.10;;;;;;5031951;28;20037;-76
2021/06/17 02:24:07;;;;;;;4.90;3.50;;;20.90;87.10;;;;;;5027643;28;20052;-76
2021/06/17 02:26:33;;;;;;;;;;;20.90;87.70;;;;;;5054548;28;20025;-75
2021/06/17 02:29:02;;;;;;;5.22;3.38;;;20.90;87.40;;;;;;5035483;28;20287;-75
2021/06/17 02:31:33;;;;;;;4.28;3.25;;;20.80;87.50;;;;;;5033627;28;20499;-76
2021/06/17 02:33:59;;;;;;;5.10;3.58;;;21.00;87.80;;;;;;5047416;28;20029;-74
2021/06/17 02:36:26;;;;;;;3.92;2.95;;;20.90;88.10;;;;;;5031671;28;20057;-75
2021/06/17 02:38:58;;;;;;;4.47;3.15;;;21.00;88.30;;;;;;5051401;28;20033;-76
2021/06/17 02:41:25;;;;;;;7.25;3.85;;;20.90;88.40;;;;;;5035390;28;20106;-75
2021/06/17 02:43:58;;;;;;;4.72;3.35;;;20.80;88.50;;;;;;5054844;28;20030;-75
2021/06/17 02:46:24;;;;;;;3.90;2.95;;;20.80;88.80;;;;;;5051129;28;20450;-75
2021/06/17 02:48:52;;;;;;;5.95;3.97;;;21.60;89.70;;;;;;5032347;28;20111;-76
2021/06/17 02:51:18;;;;;;;5.45;3.30;;;20.80;89.60;;;;;;5040552;28;20075;-76
2021/06/17 02:53:44;;;;;;;4.53;3.47;;;;;;;;;;5035673;28;20424;-76
2021/06/17 02:56:24;;;;;;;6.90;4.43;;;20.70;89.90;;;;;;5035443;28;20108;-76
2021/06/17 02:58:59;;;;;;;6.07;3.47;;;20.70;90.20;;;;;;5042154;28;20034;-75
2021/06/17 03:01:40;;;;;;;7.03;3.33;;;20.70;90.40;;;;;;5028647;28;20025;-77
2021/06/17 03:04:29;;;;;;;4.05;3.25;;;20.80;90.30;;;;;;5028306;28;20389;-76
2021/06/17 03:06:55;;;;;;;5.10;3.53;;;20.70;90.40;;;;;;5038884;28;20614;-75
2021/06/17 03:09:30;;;;;;;4.63;3.60;;;20.60;90.60;;;;;;5045685;28;20409;-75
2021/06/17 03:11:58;;;;;;;6.28;3.85;;;20.50;90.80;;;;;;5051434;28;20087;-75
2021/06/17 03:14:28;;;;;;;6.88;4.75;;;20.50;90.80;;;;;;5020414;28;20032;-76
2021/06/17 03:16:55;;;;;;;;;;;20.50;91.20;;;;;;5033976;28;20033;-75
2021/06/17 03:19:21;;;;;;;4.85;3.78;;;20.90;91.40;;;;;;5034292;28;19912;-77
2021/06/17 03:21:53;;;;;;;5.95;4.45;;;20.40;91.40;;;;;;5027542;28;20040;-75
2021/06/17 03:24:26;;;;;;;5.57;4.40;;;20.70;91.60;;;;;;5035396;28;20403;-73
2021/06/17 03:26:54;;;;;;;6.20;4.10;;;20.30;91.70;;;;;;5031235;28;20115;-77
2021/06/17 03:29:24;;;;;;;7.70;3.90;;;20.40;91.90;;;;;;5034662;28;20031;-75
2021/06/17 03:31:50;;;;;;;;;;;22.00;92.40;;;;;;5050192;28;20053;-76
2021/06/17 03:34:16;;;;;;;4.90;3.53;;;20.20;92.50;;;;;;5026894;28;20216;-75
2021/06/17 03:36:42;;;;;;;6.30;3.90;;;20.10;92.70;;;;;;5032436;28;20030;-75
2021/06/17 03:39:09;;;;;;;5.90;4.05;;;20.20;92.80;;;;;;5035569;28;20026;-75
2021/06/17 03:41:35;;;;;;;8.48;5.20;;;20.20;92.80;;;;;;5044599;28;20021;-76
2021/06/17 03:44:02;;;;;;;5.88;3.70;;;21.10;92.90;;;;;;5029186;28;20061;-77
2021/06/17 03:46:29;;;;;;;5.22;4.07;;;20.20;92.90;;;;;;5045438;28;20096;-77
2021/06/17 03:48:57;;;;;;;5.20;4.03;;;20.20;93.00;;;;;;5040371;28;20033;-77
2021/06/17 03:51:25;;;;;;;7.28;3.60;;;20.20;93.10;;;;;;5054805;28;20263;-77
2021/06/17 03:53:51;;;;;;;7.45;4.50;;;20.30;93.00;;;;;;5032591;28;20071;-75
2021/06/17 03:56:17;;;;;;;8.38;4.60;;;20.30;93.00;;;;;;5035208;28;20117;-77
2021/06/17 03:58:44;;;;;;;6.28;4.53;;;20.30;92.90;;;;;;5029602;28;20032;-76
2021/06/17 04:01:11;;;;;;;6.70;4.38;;;20.10;93.30;;;;;;5030806;28;20037;-77
2021/06/17 04:03:39;;;;;;;6.13;4.55;;;20.80;93.70;;;;;;5027988;28;20113;-77
2021/06/17 04:06:08;;;;;;;6.43;4.53;;;20.20;93.60;;;;;;5031943;28;20049;-76
2021/06/17 04:08:42;;;;;;;10.05;5.57;;;20.00;93.80;;;;;;5026416;28;20507;-76
2021/06/17 04:11:09;;;;;;;9.80;5.20;;;20.00;94.00;;;;;;5038973;28;20049;-75
2021/06/17 04:13:41;;;;;;;7.15;4.50;;;20.00;94.00;;;;;;5036431;28;20100;-75
2021/06/17 04:16:12;;;;;;;8.05;5.63;;;20.00;94.30;;;;;;5054713;28;20024;-77
2021/06/17 04:18:42;;;;;;;10.18;5.10;;;20.00;94.20;;;;;;5037813;28;20082;-76
2021/06/17 04:21:10;;;;;;;11.40;5.22;;;19.90;94.40;;;;;;5032047;28;20021;-75
2021/06/17 04:23:37;;;;;;;8.20;4.68;;;20.00;94.50;;;;;;5038387;28;20030;-77
2021/06/17 04:26:04;;;;;;;7.43;4.85;;;20.00;94.50;;;;;;5033165;28;20037;-76
2021/06/17 04:28:31;;;;;;;9.40;5.72;;;20.00;94.60;;;;;;5041420;28;20060;-77
2021/06/17 04:30:58;;;;;;;6.03;4.75;;;20.00;94.40;;;;;;5046476;28;20059;-77
2021/06/17 04:33:25;;;;;;;7.53;5.18;;;20.00;94.50;;;;;;5038193;28;20032;-76
2021/06/17 04:35:54;;;;;;;8.68;5.13;;;20.10;94.70;;;;;;5030789;28;20090;-76
2021/06/17 04:38:19;;;;;;;7.82;4.65;;;20.00;94.70;;;;;;5034819;28;20025;-76
2021/06/17 04:40:47;;;;;;;7.47;5.30;;;20.00;94.50;;;;;;5032416;28;20025;-77
2021/06/17 04:43:14;;;;;;;8.02;4.95;;;20.00;94.90;;;;;;5035493;28;20033;-75
2021/06/17 04:45:41;;;;;;;6.20;5.00;;;20.00;94.80;;;;;;5033557;28;20056;-78
2021/06/17 04:48:10;;;;;;;7.53;5.28;;;19.90;94.90;;;;;;5051873;28;20029;-76
2021/06/17 04:50:37;;;;;;;9.60;4.88;;;19.80;95.10;;;;;;5032540;28;20560;-77
2021/06/17 04:53:17;;;;;;;12.70;5.53;;;19.90;95.20;;;;;;5023784;28;20025;-76
2021/06/17 04:55:47;;;;;;;;;;;19.90;95.30;;;;;;5034273;28;20506;-78
2021/06/17 04:58:13;;;;;;;8.02;4.88;;;19.90;95.30;;;;;;5036321;28;19916;-77
2021/06/17 05:00:39;;;;;;;7.72;5.50;;;20.10;95.20;;;;;;5028248;28;20041;-78
2021/06/17 05:03:05;;;;;;;6.85;4.82;;;20.20;94.90;;;;;;5034622;28;20512;-78
2021/06/17 05:05:31;;;;;;;8.52;5.88;;;20.30;94.70;;;;;;5031950;28;20080;-76
2021/06/17 05:10:48;;;;;;;9.10;5.35;;;20.60;94.00;;;;;;5029722;28;20040;-76
2021/06/17 05:13:16;;;;;;;11.50;5.15;;;20.70;93.60;;;;;;5031847;28;20079;-77
2021/06/17 05:15:41;;;;;;;6.63;4.95;;;20.80;93.30;;;;;;5039460;28;20029;-77
2021/06/17 05:18:07;;;;;;;8.68;6.03;;;20.80;93.30;;;;;;5031340;28;20058;-77
2021/06/17 05:20:32;;;;;;;7.70;5.53;;;21.20;93.10;;;;;;5042006;28;20056;-78
2021/06/17 05:22:58;;;;;;;7.03;4.75;;;21.90;91.70;;;;;;5040530;28;20050;-77
2021/06/17 05:25:23;;;;;;;8.70;4.60;;;22.30;90.50;;;;;;5039105;28;20040;-76
2021/06/17 05:27:51;;;;;;;7.90;5.45;;;22.90;89.20;;;;;;5047004;28;20033;-76
2021/06/17 05:30:18;;;;;;;5.53;4.45;;;23.40;86.40;;;;;;5033525;28;20184;-81
2021/06/17 05:32:43;;;;;;;5.75;4.90;;;24.30;83.80;;;;;;5023074;28;20040;-77
2021/06/17 05:35:10;;;;;;;6.13;4.82;;;24.40;83.50;;;;;;5025880;28;20025;-75
2021/06/17 05:37:35;;;;;;;7.18;4.60;;;25.00;80.90;;;;;;5022340;28;20033;-74
2021/06/17 05:40:02;;;;;;;7.28;4.85;;;25.40;79.10;;;;;;5021899;28;20395;-76
2021/06/17 05:42:28;;;;;;;6.13;4.15;;;25.20;78.50;;;;;;5022914;28;20119;-75
2021/06/17 05:44:53;;;;;;;5.57;4.05;;;25.30;79.20;;;;;;5018039;28;20522;-75
2021/06/17 05:47:20;;;;;;;7.90;4.43;;;24.70;80.00;;;;;;5020907;28;20041;-76
2021/06/17 05:49:45;;;;;;;6.25;4.05;;;25.00;79.30;;;;;;5018951;28;20083;-76
2021/06/17 05:52:11;;;;;;;8.02;4.38;;;24.90;79.40;;;;;;5023737;28;20041;-76
2021/06/17 05:54:36;;;;;;;8.32;4.22;;;24.90;79.40;;;;;;5025803;28;20055;-76
2021/06/17 05:57:02;;;;;;;5.68;3.70;;;25.40;78.70;;;;;;5044088;28;20037;-76
2021/06/17 05:59:28;;;;;;;8.80;4.28;;;26.50;74.00;;;;;;5042212;28;20024;-77
2021/06/17 06:01:53;;;;;;;6.30;3.83;;;26.60;74.40;;;;;;5037247;28;20071;-77
2021/06/17 06:04:19;;;;;;;8.07;3.67;;;26.80;73.60;;;;;;5038625;28;20514;-77
2021/06/17 06:06:44;;;;;;;5.97;3.70;;;26.90;71.40;;;;;;5046982;28;20029;-76
2021/06/17 06:09:13;;;;;;;7.95;4.38;;;26.80;71.80;;;;;;5035777;28;20084;-75
2021/06/17 06:11:40;;;;;;;5.20;4.17;;;;;;;;;;5049049;28;20032;-78
2021/06/17 06:14:06;;;;;;;4.97;3.70;;;;;;;;;;5039169;28;20105;-76
2021/06/17 06:16:33;;;;;;;5.22;3.38;;;25.50;69.70;;;;;;5039188;28;20132;-76
2021/06/17 06:18:59;;;;;;;6.63;3.60;;;26.70;70.80;;;;;;5043185;28;20029;-76
2021/06/17 06:21:25;;;;;;;5.32;3.40;;;26.80;71.30;;;;;;5032343;28;20531;-76
2021/06/17 06:23:50;;;;;;;4.75;3.30;;;26.80;71.10;;;;;;5036030;28;20029;-76
2021/06/17 06:26:16;;;;;;;6.22;3.40;;;27.00;70.20;;;;;;5030209;28;20036;-77
2021/06/17 06:28:41;;;;;;;4.63;3.47;;;27.00;70.60;;;;;;5036255;28;20036;-77
2021/06/17 06:31:07;;;;;;;6.78;3.80;;;26.60;72.20;;;;;;5041598;28;20033;-76
2021/06/17 06:33:33;;;;;;;6.68;3.78;;;26.60;72.40;;;;;;5046664;28;20021;-75
2021/06/17 06:36:01;;;;;;;4.47;3.33;;;26.60;72.20;;;;;;5044592;28;20043;-77
2021/06/17 06:38:26;;;;;;;5.57;3.67;;;26.90;72.10;;;;;;5041194;28;20045;-76
2021/06/17 06:40:52;;;;;;;7.60;4.38;;;26.60;72.60;;;;;;5033869;28;20032;-76
2021/06/17 06:43:18;;;;;;;5.72;3.95;;;26.40;73.50;;;;;;5033320;28;20025;-76
2021/06/17 06:45:44;;;;;;;4.88;3.80;;;26.30;73.60;;;;;;5039938;28;20523;-76
2021/06/17 06:48:10;;;;;;;8.35;4.28;;;26.20;74.00;;;;;;5041205;28;20096;-77
2021/06/17 06:50:36;;;;;;;8.40;4.35;;;26.10;74.80;;;;;;5033719;28;20481;-77
2021/06/17 06:53:01;;;;;;;4.47;3.90;;;26.10;74.30;;;;;;5039681;28;20041;-76
2021/06/17 06:55:27;;;;;;;6.65;4.30;;;26.00;75.00;;;;;;5032040;28;20029;-76
2021/06/17 06:57:54;;;;;;;6.28;4.20;;;26.10;75.00;;;;;;5033793;28;20487;-76
2021/06/17 07:00:20;;;;;;;5.38;4.00;;;26.20;74.90;;;;;;5029417;28;20596;-74
2021/06/17 07:02:46;;;;;;;7.88;4.03;;;26.10;75.20;;;;;;5034678;28;20029;-76
2021/06/17 07:05:12;;;;;;;5.05;3.80;;;26.00;75.60;;;;;;5043918;28;20025;-75
2021/06/17 07:07:39;;;;;;;5.50;4.45;;;26.00;76.20;;;;;;5042948;28;20041;-76
2021/06/17 07:10:08;;;;;;;6.78;4.20;;;26.10;76.10;;;;;;5038490;28;20042;-77
2021/06/17 07:12:34;;;;;;;5.57;4.25;;;26.10;75.80;;;;;;5038752;28;20028;-78
2021/06/17 07:15:00;;;;;;;6.38;4.70;;;26.10;76.20;;;;;;5050470;28;20084;-79
2021/06/17 07:17:26;;;;;;;5.25;4.30;;;26.10;76.40;;;;;;5050134;28;20052;-80
2021/06/17 07:19:55;;;;;;;5.80;4.88;;;26.00;76.80;;;;;;5048622;28;20091;-76
2021/06/17 07:22:22;;;;;;;5.00;4.40;;;26.30;76.30;;;;;;5053703;28;20078;-76
2021/06/17 07:24:48;;;;;;;5.72;4.63;;;26.20;76.70;;;;;;5042912;28;20036;-77
2021/06/17 07:27:14;;;;;;;5.40;4.85;;;26.00;77.00;;;;;;5047506;28;20029;-75
2021/06/17 07:29:40;;;;;;;6.43;5.10;;;26.30;77.90;;;;;;5041508;28;20021;-79
2021/06/17 07:32:08;;;;;;;8.07;5.05;;;26.40;77.30;;;;;;5039851;28;20040;-76
2021/06/17 07:34:36;;;;;;;5.85;4.85;;;26.40;76.90;;;;;;5045876;28;20029;-76
2021/06/17 07:37:03;;;;;;;10.68;6.15;;;26.40;77.40;;;;;;5041534;28;20041;-77
2021/06/17 07:39:28;;;;;;;9.75;4.68;;;26.60;76.70;;;;;;5039579;28;20051;-76
2021/06/17 07:41:57;;;;;;;7.00;4.97;;;26.50;77.00;;;;;;5040215;28;20102;-77
2021/06/17 07:44:23;;;;;;;5.83;4.87;;;26.60;77.50;;;;;;5039588;28;20383;-76
2021/06/17 07:46:50;;;;;;;7.75;5.03;;;26.50;77.70;;;;;;5039849;28;20029;-77
2021/06/17 07:49:16;;;;;;;7.00;5.10;;;26.60;77.80;;;;;;5043852;28;20056;-76
2021/06/17 07:51:41;;;;;;;8.68;4.90;;;26.40;77.80;;;;;;5048960;28;20495;-77
2021/06/17 07:54:08;;;;;;;6.70;5.28;;;;;;;;;;5042969;28;20029;-77
2021/06/17 07:56:34;;;;;;;7.97;5.40;;;;;;;;;;5042368;28;20030;-78
2021/06/17 07:59:00;;;;;;;7.00;5.10;;;;;;;;;;5044653;28;20025;-79
2021/06/17 08:01:26;;;;;;;6.88;4.93;;;;;;;;;;5044158;28;20037;-78
2021/06/17 08:03:52;;;;;;;11.13;4.95;;;;;;;;;;5040014;28;20026;-78
2021/06/17 08:06:21;;;;;;;8.23;5.25;;;;;;;;;;5044388;28;20072;-79
2021/06/17 08:08:47;;;;;;;6.65;5.20;;;;;;;;;;5042685;28;20084;-77
2021/06/17 08:11:13;;;;;;;8.43;4.93;;;;;;;;;;5055913;28;20033;-78
2021/06/17 08:13:39;;;;;;;7.65;5.35;;;;;;;;;;5041943;28;20496;-78
2021/06/17 08:16:05;;;;;;;7.57;4.88;;;;;;;;;;5042784;28;20036;-78
2021/06/17 08:18:31;;;;;;;6.18;5.20;;;;;;;;;;5041296;28;20045;-77
2021/06/17 08:21:01;;;;;;;9.23;6.38;;;27.00;78.30;;;;;;5036567;28;20523;-78
2021/06/17 08:23:29;;;;;;;10.50;6.05;;;27.10;79.30;;;;;;5052354;28;20495;-78
2021/06/17 08:25:55;;;;;;;9.90;5.45;;;;;;;;;;5040650;28;20544;-78
2021/06/17 08:28:26;;;;;;;5.68;5.10;;;;;;;;;;5054857;28;20721;-78
2021/06/17 08:30:52;;;;;;;7.97;5.60;;;;;;;;;;5037951;28;20094;-77
2021/06/17 08:33:18;;;;;;;6.90;5.30;;;;;;;;;;5044976;28;20043;-77
2021/06/17 08:35:44;;;;;;;7.43;5.47;;;;;;;;;;5042715;28;20488;-78
2021/06/17 08:38:10;;;;;;;9.38;5.85;;;;;;;;;;5041255;28;20499;-78
2021/06/17 08:40:36;;;;;;;10.82;5.45;;;;;;;;;;5044275;28;20029;-78
2021/06/17 08:43:04;;;;;;;7.20;5.80;;;27.50;76.30;;;;;;5046164;28;20056;-78
2021/06/17 08:45:30;;;;;;;6.80;5.45;;;;;;;;;;5044363;28;20021;-79
2021/06/17 08:47:56;;;;;;;8.20;5.47;;;;;;;;;;5039806;28;20029;-78
2021/06/17 08:50:22;;;;;;;9.00;5.47;;;28.00;75.70;;;;;;5038855;28;20039;-78
2021/06/17 08:52:48;;;;;;;16.23;6.13;;;;;;;;;;5044810;28;20048;-78
2021/06/17 08:55:23;;;;;;;6.45;5.20;;;28.40;75.10;;;;;;5048806;28;20037;-78
2021/06/17 08:57:50;;;;;;;11.10;5.68;;;28.40;74.40;;;;;;5048651;28;20041;-79
2021/06/17 09:00:16;;;;;;;6.10;5.13;;;;;;;;;;5044423;28;20112;-78
2021/06/17 09:03:02;;;;;;;9.43;6.30;;;28.50;74.10;;;;;;5041602;28;20051;-79
2021/06/17 09:05:29;;;;;;;6.75;5.32;;;28.40;74.50;;;;;;5060523;28;20096;-79
2021/06/17 09:07:55;;;;;;;6.47;5.50;;;;;;;;;;5048827;28;20055;-79
2021/06/17 09:10:22;;;;;;;6.57;5.53;;;;;;;;;;5049486;28;20029;-78
2021/06/17 09:12:51;;;;;;;8.48;5.50;;;28.50;74.70;;;;;;5044721;28;20115;-77
2021/06/17 09:15:41;;;;;;;10.43;5.82;;;28.70;73.60;;;;;;5042442;28;20024;-77
2021/06/17 09:18:17;;;;;;;;;;;28.80;73.50;;;;;;5050347;28;20033;-76
2021/06/17 09:20:45;;;;;;;9.50;5.18;;;29.00;73.40;;;;;;5033761;28;20146;-78
2021/06/17 09:23:27;;;;;;;8.82;5.63;;;29.10;73.70;;;;;;5040069;28;20029;-77
2021/06/17 09:25:58;;;;;;;6.25;5.50;;;28.90;74.50;;;;;;5037715;28;20030;-77
2021/06/17 09:28:24;;;;;;;6.82;5.93;;;;;;;;;;5040726;28;20454;-77
2021/06/17 09:30:50;;;;;;;8.07;5.82;;;;;;;;;;5044347;28;20021;-78
2021/06/17 09:33:16;;;;;;;6.47;5.55;;;;;;;;;;5036941;28;20075;-77
2021/06/17 09:35:54;;;;;;;6.70;5.78;;;29.40;73.90;;;;;;5040963;28;20071;-77
2021/06/17 09:38:21;;;;;;;7.32;5.30;;;;;;;;;;5040950;28;20121;-77
2021/06/17 09:40:50;;;;;;;8.15;5.78;;;29.60;75.30;;;;;;5040844;28;20441;-77
2021/06/17 09:43:16;;;;;;;7.90;5.80;;;;;;;;;;5043482;28;20032;-78
2021/06/17 09:45:56;;;;;;;7.03;5.40;;;29.60;73.30;;;;;;5041537;28;20379;-77
2021/06/17 09:48:45;;;;;;;7.13;5.95;;;29.70;72.90;;;;;;5025486;28;20730;-77
2021/06/17 09:51:27;;;;;;;67.18;41.25;;;29.90;75.80;;;;;;5040308;28;20082;-78
2021/06/17 09:54:14;;;;;;;7.68;5.85;;;29.90;72.20;;;;;;5044004;28;20164;-79
2021/06/17 09:56:41;;;;;;;11.18;8.00;;;29.80;72.30;;;;;;5044192;28;20108;-79
2021/06/17 09:59:10;;;;;;;6.57;5.88;;;29.90;72.30;;;;;;5036204;28;20088;-78
2021/06/17 10:01:45;;;;;;;10.00;5.75;;;29.90;72.80;;;;;;5046411;28;20072;-79
2021/06/17 10:04:14;;;;;;;7.50;5.82;;;30.00;72.70;;;;;;5059480;28;20029;-79
2021/06/17 10:06:41;;;;;;;8.25;5.57;;;30.20;71.70;;;;;;5045213;28;20028;-77
2021/06/17 10:09:11;;;;;;;7.35;5.95;;;30.40;71.50;;;;;;5044427;28;20029;-76
2021/06/17 10:11:38;;;;;;;9.63;6.00;;;30.30;71.80;;;;;;5038069;28;20021;-78
2021/06/17 10:14:05;;;;;;;6.35;5.75;;;;;;;;;;5039195;28;20084;-78
2021/06/17 10:16:32;;;;;;;8.52;6.18;;;;;;;;;;5035959;28;20029;-78
2021/06/17 10:18:58;;;;;;;10.73;6.28;;;;;;;;;;5038318;28;20021;-79
2021/06/17 10:21:24;;;;;;;7.82;5.50;;;;;;;;;;5043576;28;20117;-78
2021/06/17 10:23:51;;;;;;;9.65;5.80;;;;;;;;;;5043454;28;20130;-78
2021/06/17 10:26:21;;;;;;;7.03;5.45;;;31.00;68.60;;;;;;5042271;28;20183;-79
2021/06/17 10:28:50;;;;;;;8.05;6.28;;;30.70;69.40;;;;;;5039311;28;20062;-79
2021/06/17 10:31:39;;;;;;;8.25;5.63;;;30.80;69.10;;;;;;5037131;28;20029;-79
2021/06/17 10:34:27;;;;;;;8.18;5.43;;;31.00;68.90;;;;;;5027224;28;20033;-77
2021/06/17 10:37:06;;;;;;;8.90;6.22;;;31.00;68.40;;;;;;5035435;28;20044;-78
2021/06/17 10:39:37;;;;;;;7.30;5.63;;;31.40;76.80;;;;;;5054436;28;20041;-77
2021/06/17 10:42:05;;;;;;;9.48;5.93;;;31.30;67.50;;;;;;5036774;28;20026;-77
2021/06/17 10:44:47;;;;;;;7.13;5.55;;;;;;;;;;5038769;28;20392;-77
2021/06/17 10:47:41;;;;;;;7.28;5.80;;;31.20;68.10;;;;;;5037713;28;20084;-77
2021/06/17 10:50:07;;;;;;;6.95;6.07;;;;;;;;;;5034375;28;20017;-78
2021/06/17 10:52:33;;;;;;;7.20;6.50;;;;;;;;;;5040291;28;20035;-77
2021/06/17 10:55:04;;;;;;;8.65;6.28;;;31.40;72.70;;;;;;5053758;28;20029;-76
2021/06/17 11:00:31;;;;;;;7.35;6.20;;;31.20;67.60;;;;;;5036801;28;20040;-78
2021/06/17 11:02:57;;;;;;;6.63;5.75;;;;;;;;;;5043863;28;20029;-77
2021/06/17 11:05:29;;;;;;;7.57;5.57;;;31.40;72.30;;;;;;5057043;28;20086;-78
2021/06/17 11:08:13;;;;;;;8.05;6.40;;;31.60;66.50;;;;;;5044768;28;20112;-79
2021/06/17 11:10:45;;;;;;;7.30;5.97;;;31.70;66.70;;;;;;5044623;28;20030;-79
2021/06/17 11:13:38;;;;;;;7.68;5.75;;;31.80;66.60;;;;;;5051925;28;20036;-77
2021/06/17 11:16:13;;;;;;;7.80;5.85;;;;;;;;;;5046990;28;20025;-79
2021/06/17 11:18:49;;;;;;;9.05;6.75;;;31.90;65.70;;;;;;5041892;28;20029;-77
2021/06/17 11:21:25;;;;;;;10.07;6.13;;;32.00;65.60;;;;;;5043905;28;20094;-78
2021/06/17 11:24:00;;;;;;;11.13;7.35;;;31.90;65.60;;;;;;5034540;28;20064;-76
2021/06/17 11:26:36;;;;;;;8.23;6.60;;;32.00;65.40;;;;;;5032627;28;20037;-75
2021/06/17 11:29:04;;;;;;;7.47;5.97;;;31.90;65.60;;;;;;5030624;28;20160;-77
2021/06/17 11:31:42;;;;;;;7.75;6.03;;;31.60;65.70;;;;;;5032474;28;20120;-77
2021/06/17 11:34:09;;;;;;;8.68;5.90;;;31.90;65.10;;;;;;5039140;28;20499;-77
2021/06/17 11:36:47;;;;;;;7.65;6.28;;;32.00;64.90;;;;;;5032054;28;20041;-77
2021/06/17 11:39:20;;;;;;;6.10;5.43;;;32.20;64.00;;;;;;5047330;28;20052;-76
2021/06/17 11:41:46;;;;;;;6.78;5.53;;;;;;;;;;5044931;28;20036;-76
2021/06/17 11:44:23;;;;;;;8.73;6.70;;;32.30;64.00;;;;;;5036354;28;20040;-76
2021/06/17 11:46:51;;;;;;;8.20;5.70;;;32.30;63.70;;;;;;5032313;28;20039;-76
2021/06/17 11:49:18;;;;;;;7.20;5.90;;;32.60;63.80;;;;;;5034073;28;20025;-76
2021/06/17 11:51:48;;;;;;;8.82;5.53;;;32.50;62.70;;;;;;5034723;28;20518;-78
2021/06/17 11:54:23;;;;;;;7.45;5.93;;;32.50;62.70;;;;;;5039295;28;20029;-77
2021/06/17 11:56:55;;;;;;;8.15;6.03;;;32.80;66.60;;;;;;5035017;28;20050;-77
2021/06/17 11:59:27;;;;;;;8.95;5.70;;;32.60;63.00;;;;;;5037950;28;20029;-76
2021/06/17 12:02:19;;;;;;;6.88;5.50;;;32.60;63.40;;;;;;5047308;28;20087;-77
2021/06/17 12:04:45;;;;;;;7.47;6.18;;;;;;;;;;5039089;28;20091;-77
2021/06/17 12:07:11;;;;;;;12.15;5.95;;;32.50;63.40;;;;;;5043548;28;20512;-77
2021/06/17 12:09:38;;;;;;;6.93;5.68;;;;;;;;;;5044973;28;20095;-77
2021/06/17 12:12:24;;;;;;;7.70;5.95;;;32.60;62.60;;;;;;5048614;28;20021;-78
2021/06/17 12:14:55;;;;;;;8.82;5.47;;;32.30;63.10;;;;;;5044614;28;20032;-77
2021/06/17 12:17:28;;;;;;;7.57;5.35;;;32.30;66.70;;;;;;5044297;28;20032;-79
2021/06/17 12:19:56;;;;;;;7.57;5.38;;;32.60;63.10;;;;;;5041101;28;20518;-77
2021/06/17 12:22:22;;;;;;;7.53;5.20;;;;;;;;;;5045396;28;20024;-77
2021/06/17 12:24:48;;;;;;;6.85;5.05;;;;;;;;;;5037554;28;20029;-78
2021/06/17 12:27:14;;;;;;;8.90;5.18;;;;;;;;;;5043051;28;20485;-77
2021/06/17 12:29:40;;;;;;;6.72;5.47;;;;;;;;;;5042933;28;20026;-78
2021/06/17 12:32:06;;;;;;;6.38;5.32;;;;;;;;;;5039976;28;20025;-79
2021/06/17 12:34:43;;;;;;;6.07;4.90;;;32.70;63.60;;;;;;5042608;28;20507;-79
2021/06/17 12:37:10;;;;;;;10.63;5.68;;;;;;;;;;5045278;28;20037;-78
2021/06/17 12:39:36;;;;;;;8.73;5.40;;;;;;;;;;5041734;28;20040;-77
2021/06/17 12:42:10;;;;;;;7.35;5.40;;;32.90;60.60;;;;;;5059255;28;20036;-78
2021/06/17 12:44:40;;;;;;;7.82;5.35;;;32.90;60.30;;;;;;5033425;28;20028;-78
2021/06/17 12:52:31;;;;;;;7.90;5.22;;;;;;;;;;5037964;28;20439;-77
2021/06/17 12:54:57;;;;;;;9.60;5.30;;;;;;;;;;5037619;28;20040;-77
2021/06/17 12:57:25;;;;;;;7.22;5.07;;;32.50;60.70;;;;;;5043686;28;20153;-77
2021/06/17 12:59:59;;;;;;;7.57;4.63;;;32.50;61.60;;;;;;5041290;28;20029;-77
2021/06/17 13:02:27;;;;;;;6.28;5.22;;;32.60;60.60;;;;;;5042375;28;20043;-77
2021/06/17 13:05:07;;;;;;;7.40;5.20;;;32.60;60.50;;;;;;5042655;28;20499;-78
2021/06/17 13:07:36;;;;;;;7.25;5.20;;;32.70;60.30;;;;;;5044255;28;20067;-78
2021/06/17 13:10:23;;;;;;;9.55;4.90;;;32.80;60.40;;;;;;5034469;28;20037;-79
2021/06/17 13:12:50;;;;;;;7.72;5.60;;;32.80;59.20;;;;;;5035800;28;20021;-77
2021/06/17 13:15:18;;;;;;;6.93;4.75;;;33.00;58.90;;;;;;5040780;28;20095;-77
2021/06/17 13:17:49;;;;;;;7.50;6.13;;;32.70;59.20;;;;;;5040468;28;20021;-78
2021/06/17 13:20:29;;;;;;;7.38;4.78;;;33.20;58.70;;;;;;5040185;28;20100;-77
2021/06/17 13:23:03;;;;;;;9.52;4.65;;;33.40;58.10;;;;;;5046495;28;20063;-77
2021/06/17 13:25:34;;;;;;;5.90;4.75;;;33.50;57.70;;;;;;5056956;28;20029;-77
2021/06/17 13:28:01;;;;;;;5.90;4.60;;;;;;;;;;5047301;28;20033;-76